LES MASIES DE RODA (Osona)





Hora UTC 16:35
Temperatura 15.4 ºC
Suelo 15 cm 16.3 ºC
Subsuelo 10 cm 20.6 ºC
Humedad 73.1 %
Presión 1010.8 hPa
Pluja 0.0 mm
Velocidad viento 17.0 km/h
Dirección viento SE
Radiación solar 113.5 W/m²

Datos diarios 2024-04-16



Hora UTC (invierno +1h; verano +2h)
Temperatura (ºC) Humedad (%) Presión (hPa) Velocidad viento (km/h) Precipitación (mm) Radiación solar (W/m²)
Hora UTC Aire Suelo 15 cm Subsuelo 10 cm Humedad Presión Vel. Dir. Vel. Max Dir. Intent. máx 5 min. Rad. Sol.
00:05 9.9 6.8 15.2 81.6 1016.6 1.5 E 1.5 ESE 0.0 0.1
00:10 9.5 6.6 15.2 82.8 1016.6 1.6 ESE 4.6 ESE 0.0 0.1
00:15 9.6 6.5 15.1 83.2 1016.5 1.5 ESE 4.2 ESE 0.0 0.1
00:20 9.3 6.7 15.1 83.7 1016.5 0.2 SW 2.8 SW 0.0 0.1
00:25 9.1 6.9 15.0 84.6 1016.4 2.7 SW 5.3 S 0.0 0.1
00:30 9.4 7.2 15.0 85.1 1016.3 2.4 SE 4.6 S 0.0 0.1
00:35 9.5 7.3 15.0 84.8 1016.3 2.4 NE 3.5 NE 0.0 0.1
00:40 9.4 7.1 14.9 84.5 1016.3 1.6 NNE 3.5 NW 0.0 0.1
00:45 9.1 6.8 14.9 85.8 1016.3 3.7 N 6.7 NNW 0.0 0.1
00:50 9.1 6.5 14.8 86.5 1016.2 0.2 ENE 1.8 NE 0.0 0.1
00:55 9.1 6.5 14.8 86.1 1016.1 0.0 NNE 0.0 ESE 0.0 0.1
01:00 9.0 6.4 14.7 86.4 1016.1 0.0 NNE 0.0 ESE 0.0 0.1
01:05 9.0 6.2 14.7 86.6 1016.1 0.2 ENE 3.5 ENE 0.0 0.1
01:10 9.0 6.3 14.6 86.5 1016.1 2.9 ENE 5.3 ENE 0.0 0.1
01:15 8.9 6.3 14.6 85.6 1016.0 1.4 N 3.2 N 0.0 0.1
01:20 8.6 6.1 14.5 86.4 1015.9 0.0 NNE 0.0 NNW 0.0 0.1
01:25 8.2 5.8 14.5 86.2 1015.9 0.0 NNE 0.0 NNW 0.0 0.1
01:30 8.1 5.6 14.4 87.0 1015.8 0.1 NNW 2.5 NNW 0.0 0.1
01:35 8.1 5.4 14.4 88.2 1015.7 3.6 S 6.0 S 0.0 0.1
01:40 8.8 5.7 14.4 87.4 1015.8 2.8 SE 6.0 S 0.0 0.1
01:45 8.6 5.8 14.3 85.4 1015.8 1.9 NNE 3.5 NE 0.0 0.1
01:50 8.2 5.5 14.2 86.6 1015.7 0.0 NNE 1.1 NNE 0.0 0.1
01:55 8.0 5.3 14.2 87.3 1015.6 0.0 NNE 0.0 NNE 0.0 0.1
02:00 7.9 5.2 14.1 88.2 1015.6 1.0 WNW 2.8 W 0.0 0.1
02:05 7.7 5.2 14.1 88.5 1015.6 0.5 NE 3.2 NE 0.0 0.1
02:10 7.6 5.1 14.0 89.1 1015.6 1.3 ENE 3.2 ENE 0.0 0.1
02:15 7.5 5.0 14.0 88.4 1015.5 0.3 ENE 2.5 ENE 0.0 0.1
02:20 7.0 4.8 14.0 88.2 1015.5 0.0 NNE 0.0 ENE 0.0 0.1
02:25 7.0 4.8 13.9 89.6 1015.4 0.0 NNE 0.0 ENE 0.0 0.1
02:30 7.0 4.7 13.8 89.5 1015.3 0.0 NNE 0.0 ENE 0.0 0.1
02:35 7.0 4.6 13.8 89.3 1015.3 0.0 NNE 0.0 ENE 0.0 0.1
02:40 6.8 4.5 13.7 88.8 1015.2 0.1 NNW 2.5 NNW 0.0 0.1
02:45 6.5 4.4 13.7 89.7 1015.2 3.2 NNE 4.6 NNW 0.0 0.1
02:50 6.8 4.6 13.7 91.0 1015.3 0.8 ENE 2.8 NE 0.0 0.1
02:55 6.7 4.4 13.6 90.8 1015.3 0.3 ENE 2.1 ENE 0.0 0.1
03:00 6.7 4.4 13.6 90.8 1015.3 0.2 ENE 2.1 ENE 0.0 0.1
03:05 6.6 4.3 13.5 90.5 1015.4 0.5 ENE 2.1 ENE 0.0 0.1
03:10 6.5 4.3 13.5 90.3 1015.3 0.5 ENE 1.8 ENE 0.0 0.1
03:15 6.3 4.0 13.4 90.1 1015.4 0.0 NNE 0.0 ENE 0.0 0.1
03:20 6.3 4.0 13.4 90.6 1015.4 0.0 NNE 0.0 ENE 0.0 0.1
03:25 6.3 4.0 13.3 91.1 1015.3 0.0 NNE 0.0 ENE 0.0 0.2
03:30 6.4 4.1 13.3 91.0 1015.3 0.0 NNE 0.0 ENE 0.0 0.1
03:35 6.4 4.1 13.3 90.9 1015.2 0.0 NNE 0.0 ENE 0.0 0.1
03:40 6.3 4.1 13.2 91.3 1015.1 0.5 NW 2.8 NW 0.0 0.1
03:45 6.3 4.0 13.2 91.8 1014.9 0.0 NNE 0.0 W 0.0 0.1
03:50 6.2 3.9 13.1 91.8 1014.9 0.4 W 2.1 W 0.0 0.1
03:55 6.3 3.9 13.1 92.2 1014.9 0.0 NNE 0.0 W 0.0 0.1
04:00 6.0 3.8 13.0 91.2 1014.8 1.1 WNW 2.8 WNW 0.0 0.1
04:05 5.7 3.4 13.0 91.0 1014.8 2.4 WNW 3.9 NW 0.0 0.1
04:10 5.6 3.3 12.9 91.4 1014.9 2.6 NNW 3.5 N 0.0 0.1
04:15 5.9 3.5 12.9 92.6 1014.9 2.1 NNE 3.5 N 0.0 0.1
04:20 6.1 3.7 12.8 92.9 1014.9 1.2 E 3.2 ESE 0.0 0.1
04:25 6.3 3.8 12.8 92.9 1015.0 2.7 E 3.5 ENE 0.0 0.1
04:30 6.3 3.9 12.8 92.6 1014.8 2.1 ESE 3.2 ESE 0.0 0.1
04:35 6.4 3.7 12.7 92.6 1014.7 2.3 SE 3.5 SE 0.0 0.1
04:40 6.2 3.7 12.7 91.8 1014.7 1.2 ESE 3.5 ESE 0.0 0.1
04:45 6.0 3.7 12.7 91.6 1014.9 1.7 NE 2.8 NE 0.0 0.1
04:50 6.0 3.6 12.6 91.7 1015.0 0.6 NNE 2.1 NE 0.0 0.2
04:55 5.8 3.4 12.6 91.8 1015.0 0.0 NNE 0.0 NNE 0.0 0.4
05:00 5.8 3.4 12.5 91.9 1015.1 0.0 NNE 0.0 NNE 0.0 1.0
05:05 5.7 3.4 12.5 91.7 1015.3 1.5 NNE 3.5 NE 0.0 2.0
05:10 5.7 3.4 12.4 92.2 1015.2 2.8 ESE 4.2 ESE 0.0 3.1
05:15 5.9 3.7 12.4 92.4 1015.2 1.9 ESE 5.0 SE 0.0 4.7
05:20 6.0 3.7 12.4 92.3 1015.1 2.4 ENE 4.2 ENE 0.0 6.7
05:25 5.8 3.7 12.3 91.5 1015.0 1.7 E 3.9 SSE 0.0 10.4
05:30 5.9 3.6 12.3 92.0 1014.8 1.5 S 4.6 SE 0.0 14.7
05:35 6.0 4.0 12.2 92.0 1015.0 3.2 NE 5.7 NNE 0.0 22.3
05:40 6.0 4.0 12.2 91.7 1014.9 2.7 E 4.2 NE 0.0 31.8
05:45 6.2 4.3 12.2 91.8 1015.0 1.9 NE 3.5 NE 0.0 42.6
05:50 6.2 4.4 12.1 91.6 1015.0 0.3 NNW 2.8 NNW 0.0 50.2
05:55 6.1 4.4 12.1 91.1 1015.0 1.3 N 2.8 NNW 0.0 56.5
06:00 6.3 4.7 12.1 91.2 1015.0 0.6 NNE 3.2 NNW 0.0 75.3
06:05 6.3 4.9 12.1 91.0 1015.1 2.8 NNE 3.9 NNW 0.0 78.1
06:10 6.8 5.4 12.1 91.4 1015.2 1.6 N 3.2 NW 0.0 72.5
06:15 7.0 5.7 12.1 91.1 1015.2 2.0 NNE 3.2 NNW 0.0 73.5
06:20 7.3 6.1 12.1 90.7 1015.2 0.9 NW 3.2 WNW 0.0 88.8
06:25 7.4 6.5 12.1 90.6 1015.1 1.5 NNW 2.5 NNW 0.0 124.1
06:30 7.7 7.3 12.2 90.2 1015.0 0.2 NNW 2.1 NNW 0.0 163.3
06:35 8.2 8.1 12.2 90.3 1015.0 1.8 WNW 3.9 W 0.0 137.4
06:40 8.5 8.6 12.2 89.9 1015.0 2.5 WNW 3.9 W 0.0 161.0
06:45 8.8 8.8 12.3 89.8 1015.0 2.8 NNW 4.6 N 0.0 123.0
06:50 9.2 8.9 12.3 89.0 1014.9 1.6 NNW 3.9 N 0.0 199.2
06:55 9.7 9.1 12.4 87.0 1015.0 1.1 WNW 3.2 NW 0.0 212.0
07:00 10.1 9.4 12.5 85.1 1014.9 2.3 W 5.3 SW 0.0 222.9
07:05 10.7 9.7 12.5 83.6 1014.9 2.2 WSW 5.0 WSW 0.0 237.7
07:10 11.1 10.2 12.6 81.7 1014.9 3.6 WSW 6.4 WSW 0.0 252.9
07:15 11.6 10.6 12.7 80.6 1014.8 2.1 WSW 5.0 W 0.0 269.1
07:20 12.1 11.0 12.8 75.5 1014.7 0.6 SE 2.1 SE 0.0 283.5
07:25 12.4 11.5 12.9 72.9 1014.6 1.0 SW 3.9 W 0.0 273.6
07:30 12.7 12.1 13.0 70.0 1014.6 3.0 W 6.0 WNW 0.0 306.4
07:35 12.9 12.6 13.1 68.7 1014.6 2.1 W 5.3 WNW 0.0 330.6
07:40 13.2 13.0 13.2 67.0 1014.7 2.4 W 6.0 WNW 0.0 347.5
07:45 13.3 13.7 13.4 67.4 1014.6 4.6 W 7.1 NW 0.0 362.9
07:50 13.4 14.1 13.5 66.3 1014.7 4.9 W 8.5 SW 0.0 380.8
07:55 13.4 14.7 13.6 65.7 1014.6 4.3 NW 7.8 WNW 0.0 391.9
08:00 13.3 14.5 13.7 65.0 1014.6 4.6 SW 7.8 WNW 0.0 220.9
08:05 13.1 13.8 13.8 65.2 1014.6 1.6 SW 3.9 W 0.0 192.2
08:10 13.4 14.4 13.9 68.8 1014.6 3.0 W 7.4 WSW 0.0 335.1
08:15 13.6 14.8 14.0 65.3 1014.6 4.9 SSW 7.4 SSW 0.0 421.9
08:20 13.9 15.4 14.1 63.5 1014.6 4.9 SW 12.4 S 0.0 420.0
08:25 14.1 16.5 14.2 65.1 1014.6 7.9 WSW 12.7 SW 0.0 577.6
08:30 14.6 17.6 14.3 63.2 1014.6 3.0 SSW 6.7 SW 0.0 574.3
08:35 14.9 18.3 14.5 62.3 1014.5 5.5 SW 9.5 W 0.0 527.0
08:40 14.6 17.3 14.6 61.6 1014.5 4.8 SSW 10.3 SW 0.0 327.3
08:45 14.5 17.3 14.8 63.4 1014.4 1.9 WNW 4.2 NW 0.0 300.0
08:50 14.5 17.1 14.9 63.3 1014.4 4.1 SSE 10.6 SSW 0.0 321.2
08:55 14.7 17.5 14.9 63.3 1014.4 5.2 SW 10.3 SSW 0.0 358.2
09:00 14.5 17.1 15.0 62.3 1014.4 4.0 SSW 7.4 SSE 0.0 311.7
09:05 14.6 17.7 15.1 63.9 1014.4 3.8 WNW 7.1 NNW 0.0 320.6
09:10 14.4 17.4 15.1 61.8 1014.4 4.4 NNE 6.7 NNE 0.0 270.3
09:15 14.4 16.9 15.2 62.2 1014.4 3.7 N 6.4 NNE 0.0 407.7
09:20 14.5 18.0 15.2 61.2 1014.4 2.7 ENE 3.9 NE 0.0 434.0
09:25 15.0 18.5 15.3 61.5 1014.4 1.1 SSW 4.2 S 0.0 625.4
09:30 15.9 20.5 15.4 58.5 1014.4 4.1 ESE 8.8 ESE 0.0 678.5
09:35 16.0 20.9 15.6 58.1 1014.3 4.5 SSE 8.5 SSE 0.0 700.5
09:40 16.3 21.7 15.9 56.9 1014.3 2.6 ESE 7.1 SSE 0.0 699.5
09:45 16.5 22.2 16.1 56.8 1014.2 4.2 ESE 9.5 SSE 0.0 689.8
09:50 16.5 22.1 16.4 56.0 1014.3 5.4 ESE 11.0 S 0.0 646.0
09:55 16.8 22.3 16.6 56.1 1014.2 4.2 SSE 10.3 S 0.0 726.9
10:00 17.0 22.4 16.8 54.8 1014.1 5.3 S 9.9 SE 0.0 689.8
10:05 17.1 23.1 17.0 55.5 1014.0 4.9 E 8.1 ENE 0.0 689.9
10:10 17.3 23.7 17.2 55.0 1014.0 4.7 ENE 10.3 NE 0.0 727.6
10:15 17.3 23.6 17.4 55.3 1014.0 5.5 ESE 12.4 SE 0.0 741.8
10:20 17.2 23.7 17.6 53.8 1014.0 7.2 SSE 13.8 SE 0.0 724.6
10:25 17.3 22.8 17.8 54.7 1013.9 5.8 SSE 11.0 SE 0.0 615.3
10:30 17.5 23.2 18.0 54.9 1013.9 4.1 S 10.6 SSW 0.0 736.8
10:35 17.7 23.4 18.1 54.2 1013.9 4.6 SSE 11.3 SSE 0.0 778.0
10:40 18.0 23.3 18.3 53.4 1013.8 7.7 SSE 13.1 SSW 0.0 784.0
10:45 17.8 24.1 18.5 54.0 1013.8 4.8 S 9.9 S 0.0 796.4
10:50 17.8 24.3 18.7 53.2 1013.7 4.5 ESE 9.9 ESE 0.0 800.0
10:55 18.3 25.2 18.9 53.1 1013.6 4.0 SE 9.2 SE 0.0 804.0
11:00 18.4 25.7 19.1 51.9 1013.6 5.6 SE 15.2 SE 0.0 813.0
11:05 18.1 26.9 19.3 52.3 1013.5 6.2 E 12.4 E 0.0 822.0
11:10 18.1 26.6 19.5 52.5 1013.4 6.1 E 11.3 ESE 0.0 827.0
11:15 18.3 26.5 19.6 52.6 1013.4 5.2 E 13.1 ENE 0.0 824.0
11:20 18.7 26.8 19.8 51.7 1013.3 3.1 ESE 7.1 E 0.0 830.0
11:25 18.7 27.3 20.0 50.7 1013.2 6.0 SE 11.0 SSE 0.0 842.0
11:30 19.0 26.7 20.2 51.4 1013.2 7.9 S 14.8 SSW 0.0 872.0
11:35 18.6 26.7 20.4 50.6 1013.1 6.3 ESE 13.4 ESE 0.0 847.0
11:40 18.8 26.6 20.5 52.3 1013.0 3.4 ESE 8.1 NE 0.0 701.4
11:45 19.3 26.4 20.5 50.8 1012.9 3.5 SE 9.2 S 0.0 883.0
11:50 19.3 27.2 20.6 50.2 1012.9 5.4 E 9.5 ENE 0.0 740.2
11:55 19.2 27.2 20.8 53.0 1012.8 6.1 W 12.4 W 0.0 848.0
12:00 19.6 27.2 20.9 52.6 1012.7 6.5 WNW 13.8 NW 0.0 874.0
12:05 19.4 27.3 21.0 50.7 1012.6 3.0 N 8.8 N 0.0 860.0
12:10 19.5 27.2 21.2 53.5 1012.6 6.0 NNW 11.0 NNW 0.0 805.0
12:15 19.6 27.5 21.4 51.6 1012.5 4.6 N 10.3 NNE 0.0 838.0
12:20 19.6 26.8 21.5 51.8 1012.4 4.6 WSW 8.8 SW 0.0 833.0
12:25 19.9 27.1 21.5 51.6 1012.3 4.3 E 9.5 NNE 0.0 848.0
12:30 20.0 27.7 21.6 50.9 1012.3 5.5 N 12.4 NW 0.0 848.0
12:35 20.2 28.2 21.7 51.0 1012.3 5.6 NNW 13.8 WNW 0.0 864.0
12:40 20.3 28.8 21.8 50.9 1012.2 4.0 NNE 13.4 NNW 0.0 869.0
12:45 20.4 29.1 21.9 49.0 1012.1 5.1 NE 10.3 ENE 0.0 884.0
12:50 20.1 26.7 22.0 49.0 1012.0 6.3 NNE 14.1 NNW 0.0 367.9
12:55 20.2 26.0 22.0 50.6 1012.0 9.2 NNW 14.8 N 0.0 846.0
13:00 20.6 27.5 22.1 47.5 1011.9 9.1 WNW 17.7 NW 0.0 832.0
13:05 21.0 28.3 22.1 46.3 1011.9 12.1 NW 22.2 NNW 0.0 823.0
13:10 21.2 28.2 22.2 45.7 1011.8 13.1 WNW 21.5 NNW 0.0 817.0
13:15 21.3 28.1 22.3 45.3 1011.8 12.2 W 20.8 W 0.0 813.0
13:20 21.3 28.5 22.4 42.9 1011.8 12.9 W 18.4 WNW 0.0 808.0
13:25 21.3 28.5 22.5 43.7 1011.8 11.0 W 15.9 WNW 0.0 800.0
13:30 21.3 29.3 22.6 43.5 1011.7 9.9 WNW 15.2 WNW 0.0 709.7
13:35 21.3 29.8 22.7 44.5 1011.6 7.6 WNW 12.4 WNW 0.0 783.1
13:40 21.3 29.8 22.8 41.4 1011.4 4.3 SE 11.3 SSW 0.0 780.0
13:45 21.6 29.4 22.9 42.6 1011.3 7.6 SW 17.3 SW 0.0 774.5
13:50 21.7 29.9 23.0 43.6 1011.2 8.5 W 17.3 W 0.0 763.1
13:55 21.6 28.4 23.1 41.5 1011.2 9.8 SSW 18.4 SW 0.0 756.6
14:00 21.6 28.5 23.1 42.6 1011.2 4.3 WSW 10.3 WSW 0.0 749.6
14:05 22.0 29.9 23.1 42.2 1011.1 7.8 W 16.2 WNW 0.0 774.4
14:10 22.2 30.3 23.2 41.0 1011.1 10.6 W 20.1 WNW 0.0 734.5
14:15 22.2 30.1 23.2 41.8 1011.0 8.2 WNW 13.4 W 0.0 658.0
14:20 22.1 30.8 23.3 40.2 1010.9 4.0 SW 9.2 W 0.0 649.2
14:25 22.2 29.6 23.4 42.4 1010.8 4.3 WNW 9.5 W 0.0 622.8
14:30 22.4 29.2 23.4 40.6 1010.7 15.3 WSW 24.7 SW 0.0 725.5
14:35 22.3 28.5 23.4 39.7 1010.7 10.2 SW 20.8 SW 0.0 673.2
14:40 21.9 27.0 23.4 40.3 1010.6 7.3 WSW 18.7 WSW 0.0 414.3
14:45 21.7 25.3 23.3 41.4 1010.5 11.5 W 24.4 WSW 0.0 245.1
14:50 21.5 25.2 23.2 43.1 1010.4 13.6 SW 29.7 SW 0.0 581.7
14:55 21.5 25.8 23.2 45.9 1010.4 13.9 SW 24.7 SW 0.0 725.6
15:00 21.6 25.7 23.1 45.0 1010.4 16.7 SSW 28.2 SSW 0.0 611.2
15:05 21.2 24.8 23.1 46.9 1010.4 16.2 SSW 26.5 S 0.0 626.6
15:10 21.2 24.9 22.9 47.3 1010.4 15.6 SSW 25.8 S 0.0 609.5
15:15 21.3 25.3 22.8 46.9 1010.3 14.8 SSW 23.7 S 0.0 609.8
15:20 21.2 25.5 22.8 46.8 1010.3 12.4 SSW 23.3 S 0.0 597.5
15:25 21.0 25.0 22.7 46.9 1010.3 14.1 SSW 21.5 SSE 0.0 592.7
15:30 20.9 25.0 22.6 47.8 1010.4 13.2 S 22.6 S 0.0 584.6
15:35 20.2 26.2 22.6 55.2 1010.3 11.4 SE 19.4 SE 0.0 626.7
15:40 19.9 25.1 22.5 57.2 1010.3 11.9 SSE 25.4 SE 0.0 293.2
15:45 18.7 21.6 22.4 60.1 1010.4 10.1 SSE 19.4 ESE 0.0 208.0
15:50 18.1 20.2 22.3 62.5 1010.4 15.2 SE 27.5 ESE 0.0 261.2
15:55 17.5 19.9 22.1 65.1 1010.5 16.5 SE 33.2 SE 0.0 232.9
16:00 16.9 18.7 21.9 67.3 1010.5 18.2 SE 32.5 SE 0.0 166.0
16:05 16.6 17.9 21.7 68.9 1010.6 15.5 SE 27.5 ESE 0.0 153.9
16:10 16.3 17.6 21.5 69.9 1010.6 16.8 SE 33.5 E 0.0 127.1
16:15 16.1 17.1 21.3 70.9 1010.7 14.2 SE 23.3 SSE 0.0 126.6
16:20 15.9 16.8 21.1 71.6 1010.7 13.4 SE 29.3 SE 0.0 113.7
16:25 15.8 16.6 20.9 72.0 1010.8 12.7 SE 22.2 SSE 0.0 122.9
16:30 15.6 16.6 20.8 72.3 1010.8 15.9 SE 28.2 SE 0.0 125.0
16:35 15.4 16.3 20.6 73.1 1010.8 17.0 SE 28.9 SSE 0.0 113.5
Máxima 22.6 30.8 23.4 92.9 1016.6 18.2 SE 33.5 E 0.0 884.0
Mínima 5.6 3.3 12.1 39.7 1010.3
Total 0.0